createdAt,value
2023-03-07T00:00:36.879Z,0.90
2023-03-07T00:03:25.960Z,0.90
2023-03-07T00:06:16.005Z,0.90
2023-03-07T00:09:05.731Z,0.90
2023-03-07T00:11:54.835Z,0.90
2023-03-07T00:14:43.420Z,0.90
2023-03-07T00:17:32.126Z,0.90
2023-03-07T00:20:20.985Z,0.90
2023-03-07T00:23:11.041Z,0.90
2023-03-07T00:26:01.469Z,0.90
2023-03-07T00:28:51.368Z,0.80
2023-03-07T00:31:40.490Z,0.80
2023-03-07T00:34:29.206Z,0.80
2023-03-07T00:37:18.087Z,0.90
2023-03-07T00:40:10.214Z,0.90
2023-03-07T00:42:59.045Z,0.80
2023-03-07T00:45:47.661Z,0.80
2023-03-07T00:48:38.031Z,0.90
2023-03-07T00:51:26.769Z,0.90
2023-03-07T00:54:15.845Z,0.90
2023-03-07T00:57:06.088Z,0.90
2023-03-07T00:59:54.841Z,0.90
2023-03-07T01:02:43.630Z,0.90
2023-03-07T01:05:32.553Z,0.90
2023-03-07T01:08:21.964Z,0.80
2023-03-07T01:11:11.967Z,0.90
2023-03-07T01:14:04.585Z,0.90
2023-03-07T01:16:53.511Z,1.00
2023-03-07T01:20:03.261Z,1.00
2023-03-07T01:22:52.054Z,1.00
2023-03-07T01:25:42.089Z,1.10
2023-03-07T01:28:30.996Z,1.10
2023-03-07T01:31:21.994Z,1.10
2023-03-07T01:34:10.806Z,1.10
2023-03-07T01:36:59.668Z,1.10
2023-03-07T01:39:48.375Z,1.20
2023-03-07T01:42:37.113Z,1.20
2023-03-07T01:46:02.849Z,1.20
2023-03-07T01:48:57.420Z,1.30
2023-03-07T01:51:50.431Z,1.30
2023-03-07T01:54:42.809Z,1.40
2023-03-07T01:57:35.680Z,1.40
2023-03-07T02:00:30.077Z,1.40
2023-03-07T02:03:27.701Z,1.40
2023-03-07T02:06:17.987Z,1.40
2023-03-07T02:09:12.412Z,1.40
2023-03-07T02:12:02.464Z,1.50
2023-03-07T02:14:51.741Z,1.50
2023-03-07T02:17:41.794Z,1.60
2023-03-07T02:20:41.730Z,1.60
2023-03-07T02:23:40.509Z,1.60
2023-03-07T02:26:46.364Z,1.60
2023-03-07T02:29:35.199Z,1.60
2023-03-07T02:32:24.048Z,1.60
2023-03-07T02:35:16.613Z,1.60
2023-03-07T02:38:07.642Z,1.60
2023-03-07T02:40:58.004Z,1.70
2023-03-07T02:43:48.174Z,1.70
2023-03-07T02:46:36.951Z,1.70
2023-03-07T02:49:25.901Z,1.70
2023-03-07T02:52:14.556Z,1.80
2023-03-07T02:55:03.550Z,1.80
2023-03-07T02:57:53.808Z,1.80
2023-03-07T03:00:44.024Z,1.80
2023-03-07T03:03:32.673Z,1.80
2023-03-07T03:06:21.296Z,1.80
2023-03-07T03:09:09.918Z,1.80
2023-03-07T03:11:58.740Z,1.80
2023-03-07T03:14:47.408Z,1.80
2023-03-07T03:17:37.636Z,1.80
2023-03-07T03:20:28.040Z,1.90
2023-03-07T03:23:16.693Z,1.90
2023-03-07T03:26:08.361Z,1.90
2023-03-07T03:28:56.984Z,1.90
2023-03-07T03:31:46.546Z,1.90
2023-03-07T03:34:37.287Z,1.90
2023-03-07T03:37:27.327Z,1.90
2023-03-07T03:40:17.569Z,1.90
2023-03-07T03:43:06.343Z,1.90
2023-03-07T03:45:58.459Z,1.90
2023-03-07T03:48:51.746Z,2.00
2023-03-07T03:51:41.873Z,2.00
2023-03-07T03:54:30.991Z,2.00
2023-03-07T03:57:20.774Z,2.00
2023-03-07T04:00:14.450Z,2.00
2023-03-07T04:03:03.336Z,2.00
2023-03-07T04:05:52.087Z,2.00
2023-03-07T04:08:42.998Z,2.00
2023-03-07T04:11:32.253Z,2.00
2023-03-07T04:14:21.127Z,2.00
2023-03-07T04:17:09.864Z,2.00
2023-03-07T04:19:58.485Z,2.10
2023-03-07T04:22:47.224Z,2.00
2023-03-07T04:25:37.423Z,2.10
2023-03-07T04:28:28.027Z,2.10
2023-03-07T04:31:18.382Z,2.10
2023-03-07T04:34:07.144Z,2.10
2023-03-07T04:36:55.770Z,2.10
2023-03-07T04:39:44.427Z,2.10
2023-03-07T04:42:34.578Z,2.10
2023-03-07T04:45:23.178Z,2.00
2023-03-07T04:48:11.817Z,2.00
2023-03-07T04:51:00.430Z,2.00
2023-03-07T04:53:49.271Z,2.00
2023-03-07T04:56:37.945Z,2.00
2023-03-07T04:59:27.931Z,2.00
2023-03-07T05:02:16.593Z,2.00
2023-03-07T05:05:05.833Z,2.00
2023-03-07T05:07:54.608Z,2.00
2023-03-07T05:10:43.373Z,2.10
2023-03-07T05:13:32.097Z,2.00
2023-03-07T05:16:22.129Z,2.10
2023-03-07T05:19:11.867Z,2.10
2023-03-07T05:22:00.648Z,2.10
2023-03-07T05:24:49.326Z,2.10
2023-03-07T05:27:37.967Z,2.10
2023-03-07T05:30:26.713Z,2.10
2023-03-07T05:33:17.029Z,2.10
2023-03-07T05:36:06.117Z,2.10
2023-03-07T05:38:56.545Z,2.10
2023-03-07T05:41:45.214Z,2.10
2023-03-07T05:44:34.304Z,2.10
2023-03-07T05:47:23.014Z,2.10
2023-03-07T05:50:13.956Z,2.10
2023-03-07T05:53:03.727Z,2.10
2023-03-07T05:55:52.439Z,2.10
2023-03-07T05:58:41.402Z,2.10
2023-03-07T06:01:29.984Z,2.10
2023-03-07T06:04:18.780Z,2.00
2023-03-07T06:07:08.876Z,2.10
2023-03-07T06:09:57.533Z,2.10
2023-03-07T06:12:50.206Z,2.10
2023-03-07T06:15:38.816Z,2.10
2023-03-07T06:18:27.722Z,2.10
2023-03-07T06:21:18.544Z,2.00
2023-03-07T06:24:09.464Z,2.00
2023-03-07T06:26:58.982Z,2.10
2023-03-07T06:29:47.614Z,2.10
2023-03-07T06:32:36.334Z,2.10
2023-03-07T06:35:24.986Z,2.10
2023-03-07T06:38:16.011Z,2.00
2023-03-07T06:41:06.526Z,2.10
2023-03-07T06:43:55.539Z,2.10
2023-03-07T06:46:44.158Z,2.20
2023-03-07T06:49:32.912Z,2.10
2023-03-07T06:52:21.491Z,2.20
2023-03-07T06:55:11.232Z,2.20
2023-03-07T06:58:01.228Z,2.10
2023-03-07T07:00:49.819Z,2.10
2023-03-07T07:03:38.484Z,2.10
2023-03-07T07:06:27.094Z,2.20
2023-03-07T07:09:15.800Z,2.20
2023-03-07T07:12:06.041Z,2.20
2023-03-07T07:14:56.145Z,2.20
2023-03-07T07:17:44.868Z,2.30
2023-03-07T07:20:33.494Z,2.30
2023-03-07T07:23:22.127Z,2.40
2023-03-07T07:26:10.741Z,2.40
2023-03-07T07:28:59.321Z,2.40
2023-03-07T07:31:49.836Z,2.50
2023-03-07T07:34:38.687Z,2.50
2023-03-07T07:37:27.449Z,2.60
2023-03-07T07:40:16.412Z,2.60
2023-03-07T07:43:05.125Z,2.60
2023-03-07T07:45:53.797Z,2.70
2023-03-07T07:48:43.982Z,2.90
2023-03-07T07:51:33.840Z,3.10
2023-03-07T07:54:22.471Z,3.50
2023-03-07T07:57:11.089Z,4.30
2023-03-07T07:59:59.701Z,4.80
2023-03-07T08:02:49.642Z,5.20
2023-03-07T08:05:39.968Z,5.50
2023-03-07T08:08:28.640Z,6.10
2023-03-07T08:11:17.345Z,6.40
2023-03-07T08:14:05.994Z,6.60
2023-03-07T08:16:54.619Z,6.50
2023-03-07T08:19:43.229Z,6.20
2023-03-07T08:22:33.391Z,5.70
2023-03-07T08:25:23.863Z,5.30
2023-03-07T08:28:12.610Z,5.10
2023-03-07T08:31:07.067Z,5.00
2023-03-07T08:33:56.085Z,5.10
2023-03-07T08:36:44.707Z,5.00
2023-03-07T08:39:34.792Z,4.80
2023-03-07T08:42:23.455Z,4.80
2023-03-07T08:45:20.215Z,4.70
2023-03-07T08:48:10.896Z,4.50
2023-03-07T08:51:04.778Z,4.50
2023-03-07T08:53:53.394Z,4.40
2023-03-07T08:56:43.350Z,4.40
2023-03-07T08:59:31.942Z,4.50
2023-03-07T09:02:20.626Z,4.50
2023-03-07T09:05:09.936Z,4.60
2023-03-07T09:07:58.651Z,4.70
2023-03-07T09:10:47.521Z,4.60
2023-03-07T09:13:49.745Z,4.60
2023-03-07T09:16:40.419Z,4.60
2023-03-07T09:19:29.411Z,4.70
2023-03-07T09:22:18.224Z,4.60
2023-03-07T09:25:07.729Z,4.50
2023-03-07T09:27:56.396Z,4.40
2023-03-07T09:30:46.660Z,4.40
2023-03-07T09:33:35.959Z,4.30
2023-03-07T09:36:24.690Z,4.20
2023-03-07T09:39:14.886Z,4.00
2023-03-07T09:42:17.975Z,3.80
2023-03-07T09:45:22.452Z,3.70
2023-03-07T09:48:50.279Z,3.70
2023-03-07T09:51:40.942Z,3.70
2023-03-07T09:54:36.213Z,3.70
2023-03-07T09:57:28.970Z,3.70
2023-03-07T10:00:23.062Z,3.50
2023-03-07T10:03:25.103Z,3.50
2023-03-07T10:06:17.730Z,3.50
2023-03-07T10:09:08.756Z,3.50
2023-03-07T10:12:35.989Z,3.50
2023-03-07T10:15:46.667Z,3.50
2023-03-07T10:18:56.507Z,3.50
2023-03-07T10:21:52.140Z,3.60
2023-03-07T10:24:53.267Z,3.50
2023-03-07T10:27:41.927Z,3.50
2023-03-07T10:30:33.333Z,3.50
2023-03-07T10:33:22.335Z,3.60
2023-03-07T10:36:17.933Z,3.60
2023-03-07T10:39:16.421Z,3.60
2023-03-07T10:42:05.282Z,3.60
2023-03-07T10:44:54.384Z,3.60
2023-03-07T10:47:43.734Z,3.70
2023-03-07T10:50:39.137Z,3.80
2023-03-07T10:53:33.441Z,3.80
2023-03-07T10:56:22.845Z,3.90
2023-03-07T10:59:11.968Z,4.10
2023-03-07T11:02:02.785Z,4.10
2023-03-07T11:04:51.616Z,4.20
2023-03-07T11:07:40.280Z,4.40
2023-03-07T11:10:37.602Z,4.40
2023-03-07T11:13:26.633Z,4.50
2023-03-07T11:16:21.909Z,4.50
2023-03-07T11:19:39.106Z,4.50
2023-03-07T11:22:33.663Z,4.50
2023-03-07T11:25:25.460Z,4.40
2023-03-07T11:28:28.402Z,4.40
2023-03-07T11:31:28.597Z,4.40
2023-03-07T11:34:29.028Z,4.40
2023-03-07T11:37:30.927Z,4.40
2023-03-07T11:40:29.070Z,4.40
2023-03-07T11:43:22.647Z,4.40
2023-03-07T11:46:20.502Z,4.30
2023-03-07T11:49:28.121Z,4.30
2023-03-07T11:52:46.855Z,4.30
2023-03-07T11:55:58.032Z,4.30
2023-03-07T11:59:32.149Z,4.30
2023-03-07T12:03:00.378Z,4.40
2023-03-07T12:06:06.478Z,4.40
2023-03-07T12:09:09.366Z,4.40
2023-03-07T12:12:19.223Z,4.40
2023-03-07T12:15:24.470Z,4.50
2023-03-07T12:18:36.795Z,4.40
2023-03-07T12:21:46.946Z,4.40
2023-03-07T12:24:39.592Z,4.50
2023-03-07T12:27:34.136Z,4.60
2023-03-07T12:30:27.788Z,4.70
2023-03-07T12:33:22.838Z,4.80
2023-03-07T12:36:22.535Z,4.80
2023-03-07T12:39:21.016Z,4.70
2023-03-07T12:42:18.961Z,4.70
2023-03-07T12:45:12.298Z,4.60
2023-03-07T12:48:09.100Z,4.60
2023-03-07T12:51:03.695Z,4.50
2023-03-07T12:53:59.715Z,4.40
2023-03-07T12:56:55.576Z,4.50
2023-03-07T12:59:45.331Z,4.40
2023-03-07T13:02:41.822Z,4.50
2023-03-07T13:05:32.087Z,4.40
2023-03-07T13:08:24.847Z,4.40
2023-03-07T13:11:22.713Z,4.40
2023-03-07T13:14:33.935Z,4.40
2023-03-07T13:17:58.274Z,4.40
2023-03-07T13:20:46.949Z,4.50
2023-03-07T13:23:35.810Z,4.50
2023-03-07T13:26:26.511Z,4.50
2023-03-07T13:29:15.114Z,4.50
2023-03-07T13:32:03.758Z,4.50
2023-03-07T13:34:52.655Z,4.40
2023-03-07T13:38:00.300Z,4.30
2023-03-07T13:40:56.320Z,4.30
2023-03-07T13:44:04.416Z,4.30
2023-03-07T13:46:55.883Z,4.30
2023-03-07T13:49:46.163Z,4.40
2023-03-07T13:52:47.270Z,4.40
2023-03-07T13:55:42.441Z,4.40
2023-03-07T13:58:37.391Z,4.40
2023-03-07T14:01:32.216Z,4.40
2023-03-07T14:04:38.891Z,4.40
2023-03-07T14:07:31.984Z,4.40
2023-03-07T14:10:25.157Z,4.40
2023-03-07T14:13:55.245Z,4.40
2023-03-07T14:16:56.928Z,4.40
2023-03-07T14:19:55.507Z,4.40
2023-03-07T14:22:57.487Z,4.40
2023-03-07T14:25:52.285Z,4.30
2023-03-07T14:28:51.662Z,4.40
2023-03-07T14:36:43.036Z,4.50
2023-03-07T14:38:57.879Z,4.50
2023-03-07T14:41:57.228Z,4.60
2023-03-07T14:45:15.740Z,4.60
2023-03-07T14:48:47.463Z,4.70
2023-03-07T14:51:41.837Z,4.70
2023-03-07T14:54:34.353Z,4.70
2023-03-07T14:57:30.949Z,4.60
2023-03-07T15:00:25.812Z,4.50
2023-03-07T15:03:16.003Z,4.50
2023-03-07T15:06:05.241Z,4.40
2023-03-07T15:08:54.378Z,4.40
2023-03-07T15:11:50.782Z,4.40
2023-03-07T15:14:46.010Z,4.40
2023-03-07T15:17:43.792Z,4.30
2023-03-07T15:20:33.198Z,4.40
2023-03-07T15:23:24.924Z,4.30
2023-03-07T15:26:21.263Z,4.30
2023-03-07T15:29:13.954Z,4.30
2023-03-07T15:32:04.194Z,4.30
2023-03-07T15:35:01.248Z,4.30
2023-03-07T15:37:55.572Z,4.30
2023-03-07T15:40:44.706Z,4.30
2023-03-07T15:43:37.012Z,4.40
2023-03-07T15:46:33.062Z,4.50
2023-03-07T15:49:30.395Z,4.60
2023-03-07T15:52:23.842Z,4.70
2023-03-07T15:55:20.808Z,4.80
2023-03-07T15:58:15.615Z,4.80
2023-03-07T16:01:17.033Z,4.60
2023-03-07T16:04:08.022Z,4.60
2023-03-07T16:06:57.339Z,4.60
2023-03-07T16:09:46.309Z,4.50
2023-03-07T16:12:35.568Z,4.40
2023-03-07T16:15:26.359Z,4.40
2023-03-07T16:18:22.144Z,4.40
2023-03-07T16:21:21.773Z,4.30
2023-03-07T16:24:13.014Z,4.30
2023-03-07T16:27:02.107Z,4.30
2023-03-07T16:29:51.677Z,4.20
2023-03-07T16:32:41.035Z,4.30
2023-03-07T16:35:38.013Z,4.20
2023-03-07T16:38:28.067Z,4.20
2023-03-07T16:41:18.137Z,4.20
2023-03-07T16:44:15.864Z,4.20
2023-03-07T16:47:06.098Z,4.20
2023-03-07T16:49:54.788Z,4.20
2023-03-07T16:52:44.289Z,4.20
2023-03-07T16:55:35.380Z,4.10
2023-03-07T16:58:26.435Z,4.10
2023-03-07T17:01:15.813Z,4.10
2023-03-07T17:04:24.186Z,4.10
2023-03-07T17:07:18.294Z,4.10
2023-03-07T17:10:07.454Z,4.10
2023-03-07T17:12:58.547Z,4.00
2023-03-07T17:15:47.472Z,4.00
2023-03-07T17:18:36.134Z,4.00
2023-03-07T17:21:24.929Z,4.00
2023-03-07T17:24:13.570Z,3.90
2023-03-07T17:27:03.899Z,3.90
2023-03-07T17:29:55.488Z,3.90
2023-03-07T17:32:44.254Z,3.90
2023-03-07T17:35:33.193Z,3.90
2023-03-07T17:38:21.904Z,3.80
2023-03-07T17:41:13.532Z,3.80
2023-03-07T17:44:02.154Z,3.80
2023-03-07T17:46:53.097Z,3.80
2023-03-07T17:49:41.876Z,3.80
2023-03-07T17:52:30.787Z,3.80
2023-03-07T17:55:20.015Z,3.80
2023-03-07T17:58:09.784Z,3.80
2023-03-07T18:00:58.454Z,3.80
2023-03-07T18:03:48.665Z,3.80
2023-03-07T18:06:39.910Z,3.70
2023-03-07T18:09:29.501Z,3.70
2023-03-07T18:12:18.145Z,3.70
2023-03-07T18:15:08.716Z,3.70
2023-03-07T18:17:58.855Z,3.80
2023-03-07T18:20:58.015Z,3.80
2023-03-07T18:23:46.657Z,3.80
2023-03-07T18:26:35.315Z,3.70
2023-03-07T18:29:32.675Z,3.80
2023-03-07T18:35:38.073Z,3.80
2023-03-07T18:38:28.548Z,3.70
2023-03-07T18:41:19.445Z,3.60
2023-03-07T18:44:08.903Z,3.60
2023-03-07T18:47:01.145Z,3.40
2023-03-07T19:35:51.122Z,1.00
2023-03-07T19:38:52.215Z,1.00
2023-03-07T19:50:04.748Z,0.90
2023-03-07T20:19:03.003Z,1.10
2023-03-07T20:21:54.067Z,1.10
2023-03-07T20:24:43.588Z,1.10
2023-03-07T20:27:33.113Z,1.00
2023-03-07T20:30:22.538Z,1.00
2023-03-07T20:33:11.692Z,1.00
2023-03-07T20:36:08.110Z,1.10
2023-03-07T20:38:58.349Z,1.00
2023-03-07T20:42:05.665Z,1.00
2023-03-07T20:44:59.317Z,1.00
2023-03-07T20:47:52.763Z,1.00
2023-03-07T20:50:45.820Z,1.00
2023-03-07T20:57:02.610Z,1.00
2023-03-07T20:59:56.007Z,1.00
2023-03-07T21:15:13.243Z,1.00
2023-03-07T21:18:04.299Z,1.00
2023-03-07T21:20:53.750Z,1.00
2023-03-07T21:23:42.516Z,0.90
2023-03-07T21:26:33.133Z,0.90
2023-03-07T21:29:21.765Z,0.90
2023-03-07T21:32:10.430Z,0.90
2023-03-07T21:35:00.465Z,0.90
2023-03-07T21:37:49.145Z,0.90
2023-03-07T21:40:37.777Z,0.90
2023-03-07T21:43:26.537Z,0.90
2023-03-07T21:46:16.204Z,0.90
2023-03-07T21:49:04.982Z,0.90
2023-03-07T21:51:55.027Z,0.90
2023-03-07T21:54:43.626Z,0.90
2023-03-07T21:57:32.294Z,0.90
2023-03-07T22:00:21.806Z,0.90
2023-03-07T22:03:10.568Z,0.80
2023-03-07T22:05:59.187Z,0.80
2023-03-07T22:08:49.593Z,0.90
2023-03-07T22:11:38.292Z,0.90
2023-03-07T22:14:26.963Z,0.80
2023-03-07T22:17:15.692Z,0.80
2023-03-07T22:20:05.921Z,0.80
2023-03-07T22:22:55.404Z,0.80
2023-03-07T22:25:45.983Z,0.80
2023-03-07T22:28:35.068Z,0.70
2023-03-07T22:31:24.200Z,0.70
2023-03-07T22:34:12.940Z,0.70
2023-03-07T22:37:01.503Z,0.70
2023-03-07T22:39:50.268Z,0.70
2023-03-07T22:42:40.400Z,0.70
2023-03-07T22:45:29.120Z,0.70
2023-03-07T22:48:19.465Z,0.60
2023-03-07T22:51:13.567Z,0.60
2023-03-07T22:54:04.456Z,0.60
2023-03-07T22:56:53.154Z,0.60
2023-03-07T22:59:43.262Z,0.70
2023-03-07T23:02:32.103Z,0.70
2023-03-07T23:05:21.692Z,0.70
2023-03-07T23:08:13.679Z,0.60
2023-03-07T23:11:47.386Z,0.60
2023-03-07T23:14:39.398Z,0.60
2023-03-07T23:18:49.816Z,0.60
2023-03-07T23:21:42.365Z,0.60
2023-03-07T23:24:33.021Z,0.60
2023-03-07T23:27:34.596Z,0.50
2023-03-07T23:30:41.055Z,0.50
2023-03-07T23:33:30.844Z,0.50
2023-03-07T23:36:19.794Z,0.50
2023-03-07T23:39:12.125Z,0.50
2023-03-07T23:42:02.269Z,0.50
2023-03-07T23:44:52.344Z,0.50
2023-03-07T23:47:42.610Z,0.50
2023-03-07T23:50:36.467Z,0.60
2023-03-07T23:57:29.586Z,0.60
